sensor_id;sensor_type;location;lat;lon;timestamp;pressure;altitude;pressure_sealevel;temperature;humidity
47670;BME280;33408;52.062;11.722;2023-08-08T00:00:48;100765.16;;;13.34;100.00
47670;BME280;33408;52.062;11.722;2023-08-08T00:03:16;100758.50;;;13.24;100.00
47670;BME280;33408;52.062;11.722;2023-08-08T00:05:43;100756.06;;;13.18;100.00
47670;BME280;33408;52.062;11.722;2023-08-08T00:08:09;100754.06;;;13.27;100.00
47670;BME280;33408;52.062;11.722;2023-08-08T00:10:36;100760.44;;;13.17;100.00
47670;BME280;33408;52.062;11.722;2023-08-08T00:13:03;100755.53;;;13.06;100.00
47670;BME280;33408;52.062;11.722;2023-08-08T00:15:30;100757.06;;;13.13;100.00
47670;BME280;33408;52.062;11.722;2023-08-08T00:17:56;100761.44;;;13.11;100.00
47670;BME280;33408;52.062;11.722;2023-08-08T00:20:24;100752.84;;;13.09;100.00
47670;BME280;33408;52.062;11.722;2023-08-08T00:22:51;100755.75;;;12.99;100.00
47670;BME280;33408;52.062;11.722;2023-08-08T00:25:17;100760.59;;;13.11;100.00
47670;BME280;33408;52.062;11.722;2023-08-08T00:27:44;100766.81;;;13.05;100.00
47670;BME280;33408;52.062;11.722;2023-08-08T00:30:11;100765.00;;;13.09;100.00
47670;BME280;33408;52.062;11.722;2023-08-08T00:32:38;100767.47;;;13.13;100.00
47670;BME280;33408;52.062;11.722;2023-08-08T00:35:05;100768.16;;;13.20;100.00
47670;BME280;33408;52.062;11.722;2023-08-08T00:37:33;100764.72;;;13.18;100.00
47670;BME280;33408;52.062;11.722;2023-08-08T00:40:00;100763.56;;;12.99;100.00
47670;BME280;33408;52.062;11.722;2023-08-08T00:42:26;100759.47;;;12.90;100.00
47670;BME280;33408;52.062;11.722;2023-08-08T00:44:53;100753.66;;;12.80;100.00
47670;BME280;33408;52.062;11.722;2023-08-08T00:47:20;100745.31;;;12.69;100.00
47670;BME280;33408;52.062;11.722;2023-08-08T00:49:47;100750.16;;;12.81;100.00
47670;BME280;33408;52.062;11.722;2023-08-08T00:52:14;100753.19;;;12.97;100.00
47670;BME280;33408;52.062;11.722;2023-08-08T00:54:42;100753.34;;;12.91;100.00
47670;BME280;33408;52.062;11.722;2023-08-08T00:57:08;100746.75;;;12.79;100.00
47670;BME280;33408;52.062;11.722;2023-08-08T00:59:35;100746.38;;;12.60;100.00
47670;BME280;33408;52.062;11.722;2023-08-08T01:02:02;100752.34;;;12.64;100.00
47670;BME280;33408;52.062;11.722;2023-08-08T01:04:28;100745.53;;;12.59;100.00
47670;BME280;33408;52.062;11.722;2023-08-08T01:07:03;100745.75;;;12.52;100.00
47670;BME280;33408;52.062;11.722;2023-08-08T01:09:36;100741.03;;;12.98;100.00
47670;BME280;33408;52.062;11.722;2023-08-08T01:12:06;100738.63;;;12.58;100.00
47670;BME280;33408;52.062;11.722;2023-08-08T01:14:35;100729.09;;;12.59;100.00
47670;BME280;33408;52.062;11.722;2023-08-08T01:17:03;100733.41;;;12.58;100.00
47670;BME280;33408;52.062;11.722;2023-08-08T01:19:31;100726.56;;;12.56;100.00
47670;BME280;33408;52.062;11.722;2023-08-08T01:22:01;100727.06;;;12.70;100.00
47670;BME280;33408;52.062;11.722;2023-08-08T01:24:30;100731.94;;;12.50;100.00
47670;BME280;33408;52.062;11.722;2023-08-08T01:26:58;100717.00;;;12.56;100.00
47670;BME280;33408;52.062;11.722;2023-08-08T01:29:25;100723.34;;;12.48;100.00
47670;BME280;33408;52.062;11.722;2023-08-08T01:31:52;100718.22;;;12.45;100.00
47670;BME280;33408;52.062;11.722;2023-08-08T01:34:19;100712.81;;;12.51;100.00
47670;BME280;33408;52.062;11.722;2023-08-08T01:36:49;100714.56;;;12.50;100.00
47670;BME280;33408;52.062;11.722;2023-08-08T01:39:17;100709.75;;;12.36;100.00
47670;BME280;33408;52.062;11.722;2023-08-08T01:41:48;100704.22;;;12.49;100.00
47670;BME280;33408;52.062;11.722;2023-08-08T01:44:15;100710.78;;;12.62;100.00
47670;BME280;33408;52.062;11.722;2023-08-08T01:46:43;100706.31;;;12.34;100.00
47670;BME280;33408;52.062;11.722;2023-08-08T01:49:09;100707.97;;;12.70;100.00
47670;BME280;33408;52.062;11.722;2023-08-08T01:51:36;100706.31;;;12.67;100.00
47670;BME280;33408;52.062;11.722;2023-08-08T01:54:02;100705.34;;;12.71;100.00
47670;BME280;33408;52.062;11.722;2023-08-08T01:56:29;100705.03;;;12.82;100.00
47670;BME280;33408;52.062;11.722;2023-08-08T01:58:57;100705.09;;;12.81;100.00
47670;BME280;33408;52.062;11.722;2023-08-08T02:01:23;100706.84;;;12.80;100.00
47670;BME280;33408;52.062;11.722;2023-08-08T02:03:50;100711.75;;;12.89;100.00
47670;BME280;33408;52.062;11.722;2023-08-08T02:06:17;100702.44;;;12.82;100.00
47670;BME280;33408;52.062;11.722;2023-08-08T02:08:44;100701.19;;;12.95;100.00
47670;BME280;33408;52.062;11.722;2023-08-08T02:11:10;100693.41;;;12.64;100.00
47670;BME280;33408;52.062;11.722;2023-08-08T02:13:37;100697.28;;;12.81;100.00
47670;BME280;33408;52.062;11.722;2023-08-08T02:16:05;100694.69;;;12.81;100.00
47670;BME280;33408;52.062;11.722;2023-08-08T02:18:31;100685.75;;;12.89;100.00
47670;BME280;33408;52.062;11.722;2023-08-08T02:20:58;100681.13;;;12.99;100.00
47670;BME280;33408;52.062;11.722;2023-08-08T02:23:25;100683.22;;;12.86;100.00
47670;BME280;33408;52.062;11.722;2023-08-08T02:25:52;100682.16;;;12.93;100.00
47670;BME280;33408;52.062;11.722;2023-08-08T02:28:19;100687.19;;;13.00;100.00
47670;BME280;33408;52.062;11.722;2023-08-08T02:30:46;100685.94;;;12.83;100.00
47670;BME280;33408;52.062;11.722;2023-08-08T02:33:13;100680.31;;;12.97;100.00
47670;BME280;33408;52.062;11.722;2023-08-08T02:35:40;100683.19;;;12.88;100.00
47670;BME280;33408;52.062;11.722;2023-08-08T02:38:07;100690.06;;;12.90;100.00
47670;BME280;33408;52.062;11.722;2023-08-08T02:40:33;100685.69;;;12.91;100.00
47670;BME280;33408;52.062;11.722;2023-08-08T02:43:00;100681.09;;;13.01;100.00
47670;BME280;33408;52.062;11.722;2023-08-08T02:45:27;100681.00;;;13.04;100.00
47670;BME280;33408;52.062;11.722;2023-08-08T02:47:53;100685.34;;;13.03;100.00
47670;BME280;33408;52.062;11.722;2023-08-08T02:50:21;100692.75;;;13.17;100.00
47670;BME280;33408;52.062;11.722;2023-08-08T02:52:49;100688.56;;;13.11;100.00
47670;BME280;33408;52.062;11.722;2023-08-08T02:55:17;100682.63;;;13.08;100.00
47670;BME280;33408;52.062;11.722;2023-08-08T02:57:43;100681.25;;;13.24;100.00
47670;BME280;33408;52.062;11.722;2023-08-08T03:00:11;100674.94;;;13.03;100.00
47670;BME280;33408;52.062;11.722;2023-08-08T03:02:38;100686.81;;;13.12;100.00
47670;BME280;33408;52.062;11.722;2023-08-08T03:05:05;100674.84;;;13.06;100.00
47670;BME280;33408;52.062;11.722;2023-08-08T03:07:33;100676.66;;;13.04;100.00
47670;BME280;33408;52.062;11.722;2023-08-08T03:10:00;100673.22;;;13.02;100.00
47670;BME280;33408;52.062;11.722;2023-08-08T03:12:26;100677.47;;;13.06;100.00
47670;BME280;33408;52.062;11.722;2023-08-08T03:14:53;100678.44;;;13.02;100.00
47670;BME280;33408;52.062;11.722;2023-08-08T03:17:20;100675.91;;;12.99;100.00
47670;BME280;33408;52.062;11.722;2023-08-08T03:19:47;100672.25;;;13.06;100.00
47670;BME280;33408;52.062;11.722;2023-08-08T03:22:14;100669.53;;;13.11;100.00
47670;BME280;33408;52.062;11.722;2023-08-08T03:24:42;100669.66;;;13.06;100.00
47670;BME280;33408;52.062;11.722;2023-08-08T03:27:08;100671.38;;;13.07;100.00
47670;BME280;33408;52.062;11.722;2023-08-08T03:29:35;100670.97;;;12.91;100.00
47670;BME280;33408;52.062;11.722;2023-08-08T03:32:02;100671.03;;;13.18;100.00
47670;BME280;33408;52.062;11.722;2023-08-08T03:34:29;100668.03;;;13.02;100.00
47670;BME280;33408;52.062;11.722;2023-08-08T03:36:56;100667.56;;;13.18;100.00
47670;BME280;33408;52.062;11.722;2023-08-08T03:39:22;100666.53;;;13.23;100.00
47670;BME280;33408;52.062;11.722;2023-08-08T03:41:50;100669.38;;;13.16;100.00
47670;BME280;33408;52.062;11.722;2023-08-08T03:44:17;100659.94;;;13.11;100.00
47670;BME280;33408;52.062;11.722;2023-08-08T03:46:43;100661.03;;;13.04;100.00
47670;BME280;33408;52.062;11.722;2023-08-08T03:49:10;100669.97;;;13.25;100.00
47670;BME280;33408;52.062;11.722;2023-08-08T03:51:36;100668.50;;;13.15;100.00
47670;BME280;33408;52.062;11.722;2023-08-08T03:54:03;100664.22;;;13.14;100.00
47670;BME280;33408;52.062;11.722;2023-08-08T03:56:29;100664.94;;;13.19;100.00
47670;BME280;33408;52.062;11.722;2023-08-08T03:58:58;100664.41;;;13.08;100.00
47670;BME280;33408;52.062;11.722;2023-08-08T04:01:24;100656.22;;;13.20;100.00
47670;BME280;33408;52.062;11.722;2023-08-08T04:03:51;100660.13;;;13.35;100.00
47670;BME280;33408;52.062;11.722;2023-08-08T04:06:17;100661.44;;;13.48;100.00
47670;BME280;33408;52.062;11.722;2023-08-08T04:08:44;100661.44;;;13.48;100.00
47670;BME280;33408;52.062;11.722;2023-08-08T04:11:10;100653.00;;;13.68;100.00
47670;BME280;33408;52.062;11.722;2023-08-08T04:13:37;100658.78;;;13.78;100.00
47670;BME280;33408;52.062;11.722;2023-08-08T04:16:05;100655.53;;;13.97;100.00
47670;BME280;33408;52.062;11.722;2023-08-08T04:18:31;100644.66;;;13.84;100.00
47670;BME280;33408;52.062;11.722;2023-08-08T04:20:58;100648.03;;;13.88;100.00
47670;BME280;33408;52.062;11.722;2023-08-08T04:23:25;100653.09;;;13.65;100.00
47670;BME280;33408;52.062;11.722;2023-08-08T04:25:51;100657.00;;;13.52;100.00
47670;BME280;33408;52.062;11.722;2023-08-08T04:28:18;100659.41;;;13.58;100.00
47670;BME280;33408;52.062;11.722;2023-08-08T04:30:45;100656.44;;;13.42;100.00
47670;BME280;33408;52.062;11.722;2023-08-08T04:33:12;100661.91;;;13.61;100.00
47670;BME280;33408;52.062;11.722;2023-08-08T04:35:39;100656.66;;;13.63;100.00
47670;BME280;33408;52.062;11.722;2023-08-08T04:38:06;100658.28;;;13.67;100.00
47670;BME280;33408;52.062;11.722;2023-08-08T04:40:32;100652.34;;;13.62;100.00
47670;BME280;33408;52.062;11.722;2023-08-08T04:43:00;100654.94;;;13.62;100.00
47670;BME280;33408;52.062;11.722;2023-08-08T04:45:26;100666.59;;;13.78;100.00
47670;BME280;33408;52.062;11.722;2023-08-08T04:47:54;100661.91;;;13.88;100.00
47670;BME280;33408;52.062;11.722;2023-08-08T04:50:22;100656.75;;;13.86;100.00
47670;BME280;33408;52.062;11.722;2023-08-08T04:52:48;100658.44;;;13.88;100.00
47670;BME280;33408;52.062;11.722;2023-08-08T04:55:15;100657.31;;;13.96;100.00
47670;BME280;33408;52.062;11.722;2023-08-08T04:57:42;100647.94;;;13.64;100.00
47670;BME280;33408;52.062;11.722;2023-08-08T05:00:09;100644.19;;;13.73;100.00
47670;BME280;33408;52.062;11.722;2023-08-08T05:02:36;100642.13;;;13.56;100.00
47670;BME280;33408;52.062;11.722;2023-08-08T05:05:05;100641.78;;;13.66;100.00
47670;BME280;33408;52.062;11.722;2023-08-08T05:07:33;100650.13;;;13.76;100.00
47670;BME280;33408;52.062;11.722;2023-08-08T05:10:02;100647.31;;;13.82;100.00
47670;BME280;33408;52.062;11.722;2023-08-08T05:12:31;100649.03;;;13.83;100.00
47670;BME280;33408;52.062;11.722;2023-08-08T05:14:57;100646.19;;;13.91;100.00
47670;BME280;33408;52.062;11.722;2023-08-08T05:17:24;100645.66;;;13.81;100.00
47670;BME280;33408;52.062;11.722;2023-08-08T05:19:51;100647.81;;;13.94;100.00
47670;BME280;33408;52.062;11.722;2023-08-08T05:22:17;100640.09;;;13.91;100.00
47670;BME280;33408;52.062;11.722;2023-08-08T05:24:45;100645.25;;;13.92;100.00
47670;BME280;33408;52.062;11.722;2023-08-08T05:27:12;100649.44;;;13.98;100.00
47670;BME280;33408;52.062;11.722;2023-08-08T05:29:38;100644.38;;;13.93;100.00
47670;BME280;33408;52.062;11.722;2023-08-08T05:32:07;100642.25;;;14.04;100.00
47670;BME280;33408;52.062;11.722;2023-08-08T05:34:33;100639.75;;;14.01;100.00
47670;BME280;33408;52.062;11.722;2023-08-08T05:37:00;100633.53;;;14.06;100.00
47670;BME280;33408;52.062;11.722;2023-08-08T05:39:27;100635.75;;;14.16;100.00
47670;BME280;33408;52.062;11.722;2023-08-08T05:41:55;100637.31;;;14.22;100.00
47670;BME280;33408;52.062;11.722;2023-08-08T05:44:21;100641.53;;;14.25;100.00
47670;BME280;33408;52.062;11.722;2023-08-08T05:46:48;100641.53;;;14.25;100.00
47670;BME280;33408;52.062;11.722;2023-08-08T05:49:14;100632.63;;;14.32;100.00
47670;BME280;33408;52.062;11.722;2023-08-08T05:51:41;100634.25;;;14.34;100.00
47670;BME280;33408;52.062;11.722;2023-08-08T05:54:08;100638.47;;;14.38;100.00
47670;BME280;33408;52.062;11.722;2023-08-08T05:56:35;100641.13;;;14.37;100.00
47670;BME280;33408;52.062;11.722;2023-08-08T05:59:04;100633.88;;;14.45;100.00
47670;BME280;33408;52.062;11.722;2023-08-08T06:01:31;100643.56;;;14.41;100.00
47670;BME280;33408;52.062;11.722;2023-08-08T06:03:57;100641.41;;;14.53;100.00
47670;BME280;33408;52.062;11.722;2023-08-08T06:06:24;100637.03;;;14.53;100.00
47670;BME280;33408;52.062;11.722;2023-08-08T06:08:51;100638.06;;;14.49;100.00
47670;BME280;33408;52.062;11.722;2023-08-08T06:11:18;100645.78;;;14.52;100.00
47670;BME280;33408;52.062;11.722;2023-08-08T06:13:45;100643.25;;;14.51;100.00
47670;BME280;33408;52.062;11.722;2023-08-08T06:16:13;100642.06;;;14.59;100.00
47670;BME280;33408;52.062;11.722;2023-08-08T06:18:41;100642.53;;;14.71;100.00
47670;BME280;33408;52.062;11.722;2023-08-08T06:21:07;100645.88;;;14.74;100.00
47670;BME280;33408;52.062;11.722;2023-08-08T06:23:34;100642.91;;;14.84;100.00
47670;BME280;33408;52.062;11.722;2023-08-08T06:26:00;100635.81;;;14.87;100.00
47670;BME280;33408;52.062;11.722;2023-08-08T06:28:27;100638.63;;;15.05;100.00
47670;BME280;33408;52.062;11.722;2023-08-08T06:30:56;100634.47;;;15.01;100.00
47670;BME280;33408;52.062;11.722;2023-08-08T06:33:24;100631.78;;;15.02;100.00
47670;BME280;33408;52.062;11.722;2023-08-08T06:35:51;100629.50;;;15.17;100.00
47670;BME280;33408;52.062;11.722;2023-08-08T06:38:17;100623.34;;;15.18;100.00
47670;BME280;33408;52.062;11.722;2023-08-08T06:40:44;100628.88;;;15.32;100.00
47670;BME280;33408;52.062;11.722;2023-08-08T06:43:10;100621.47;;;15.43;100.00
47670;BME280;33408;52.062;11.722;2023-08-08T06:45:38;100619.44;;;15.50;100.00
47670;BME280;33408;52.062;11.722;2023-08-08T06:48:05;100630.44;;;15.58;100.00
47670;BME280;33408;52.062;11.722;2023-08-08T06:50:33;100626.78;;;15.62;100.00
47670;BME280;33408;52.062;11.722;2023-08-08T06:53:00;100622.81;;;15.74;100.00
47670;BME280;33408;52.062;11.722;2023-08-08T06:55:26;100630.25;;;15.85;100.00
47670;BME280;33408;52.062;11.722;2023-08-08T06:57:53;100620.75;;;16.03;100.00
47670;BME280;33408;52.062;11.722;2023-08-08T07:00:20;100620.88;;;16.00;100.00
47670;BME280;33408;52.062;11.722;2023-08-08T07:02:46;100619.91;;;16.02;100.00
47670;BME280;33408;52.062;11.722;2023-08-08T07:05:13;100621.34;;;16.10;100.00
47670;BME280;33408;52.062;11.722;2023-08-08T07:07:41;100618.47;;;15.95;100.00
47670;BME280;33408;52.062;11.722;2023-08-08T07:10:08;100614.56;;;16.06;100.00
47670;BME280;33408;52.062;11.722;2023-08-08T07:12:34;100618.06;;;16.25;100.00
47670;BME280;33408;52.062;11.722;2023-08-08T07:15:01;100629.25;;;16.29;100.00
47670;BME280;33408;52.062;11.722;2023-08-08T07:17:28;100623.59;;;16.38;100.00
47670;BME280;33408;52.062;11.722;2023-08-08T07:19:56;100626.38;;;16.54;100.00
47670;BME280;33408;52.062;11.722;2023-08-08T07:22:23;100616.06;;;16.51;100.00
47670;BME280;33408;52.062;11.722;2023-08-08T07:24:51;100617.84;;;16.50;100.00
47670;BME280;33408;52.062;11.722;2023-08-08T07:27:18;100617.09;;;16.47;100.00
47670;BME280;33408;52.062;11.722;2023-08-08T07:29:44;100622.69;;;16.39;100.00
47670;BME280;33408;52.062;11.722;2023-08-08T07:32:11;100630.47;;;16.40;100.00
47670;BME280;33408;52.062;11.722;2023-08-08T07:34:37;100624.75;;;16.51;100.00
47670;BME280;33408;52.062;11.722;2023-08-08T07:37:04;100622.16;;;16.70;100.00
47670;BME280;33408;52.062;11.722;2023-08-08T07:39:31;100622.38;;;16.85;100.00
47670;BME280;33408;52.062;11.722;2023-08-08T07:41:59;100623.97;;;16.89;100.00
47670;BME280;33408;52.062;11.722;2023-08-08T07:44:26;100622.59;;;16.99;100.00
47670;BME280;33408;52.062;11.722;2023-08-08T07:46:57;100622.81;;;16.94;100.00
47670;BME280;33408;52.062;11.722;2023-08-08T07:49:23;100618.97;;;16.83;100.00
47670;BME280;33408;52.062;11.722;2023-08-08T07:51:50;100619.69;;;17.24;100.00
47670;BME280;33408;52.062;11.722;2023-08-08T07:54:16;100596.50;;;17.69;100.00
47670;BME280;33408;52.062;11.722;2023-08-08T07:56:43;100598.06;;;18.08;100.00
47670;BME280;33408;52.062;11.722;2023-08-08T07:59:11;100603.09;;;18.29;100.00
47670;BME280;33408;52.062;11.722;2023-08-08T08:01:37;100599.88;;;18.23;100.00
47670;BME280;33408;52.062;11.722;2023-08-08T08:04:04;100588.09;;;18.48;100.00
47670;BME280;33408;52.062;11.722;2023-08-08T08:06:31;100599.03;;;18.72;99.23
47670;BME280;33408;52.062;11.722;2023-08-08T08:08:58;100590.66;;;18.98;95.90
47670;BME280;33408;52.062;11.722;2023-08-08T08:11:24;100586.91;;;18.70;97.52
47670;BME280;33408;52.062;11.722;2023-08-08T08:13:51;100581.16;;;18.79;94.79
47670;BME280;33408;52.062;11.722;2023-08-08T08:16:19;100585.81;;;18.58;92.69
47670;BME280;33408;52.062;11.722;2023-08-08T08:18:46;100588.63;;;18.21;93.08
47670;BME280;33408;52.062;11.722;2023-08-08T08:21:13;100581.00;;;18.33;94.48
47670;BME280;33408;52.062;11.722;2023-08-08T08:23:42;100576.31;;;18.55;92.03
47670;BME280;33408;52.062;11.722;2023-08-08T08:26:09;100571.31;;;18.83;88.76
47670;BME280;33408;52.062;11.722;2023-08-08T08:28:35;100571.81;;;19.21;87.31
47670;BME280;33408;52.062;11.722;2023-08-08T08:31:06;100566.41;;;19.55;85.23
47670;BME280;33408;52.062;11.722;2023-08-08T08:33:35;100562.75;;;19.41;83.34
47670;BME280;33408;52.062;11.722;2023-08-08T08:36:02;100567.50;;;19.50;83.06
47670;BME280;33408;52.062;11.722;2023-08-08T08:38:28;100556.09;;;19.66;82.09
47670;BME280;33408;52.062;11.722;2023-08-08T08:40:56;100564.03;;;19.50;80.83
47670;BME280;33408;52.062;11.722;2023-08-08T08:43:23;100549.56;;;19.88;80.03
47670;BME280;33408;52.062;11.722;2023-08-08T08:45:52;100562.25;;;19.81;81.58
47670;BME280;33408;52.062;11.722;2023-08-08T08:48:21;100561.97;;;19.25;81.98
47670;BME280;33408;52.062;11.722;2023-08-08T08:50:49;100559.47;;;19.38;81.51
47670;BME280;33408;52.062;11.722;2023-08-08T08:53:17;100550.78;;;19.82;78.19
47670;BME280;33408;52.062;11.722;2023-08-08T08:55:44;100554.63;;;19.46;78.70
47670;BME280;33408;52.062;11.722;2023-08-08T08:58:14;100552.28;;;19.56;76.11
47670;BME280;33408;52.062;11.722;2023-08-08T09:00:43;100545.28;;;19.26;76.12
47670;BME280;33408;52.062;11.722;2023-08-08T09:03:10;100543.03;;;19.64;74.60
47670;BME280;33408;52.062;11.722;2023-08-08T09:05:38;100540.66;;;19.60;73.63
47670;BME280;33408;52.062;11.722;2023-08-08T09:08:07;100543.41;;;19.73;72.97
47670;BME280;33408;52.062;11.722;2023-08-08T09:10:34;100539.47;;;19.35;74.73
47670;BME280;33408;52.062;11.722;2023-08-08T09:13:01;100542.44;;;19.59;75.31
47670;BME280;33408;52.062;11.722;2023-08-08T09:15:30;100537.06;;;19.91;71.81
47670;BME280;33408;52.062;11.722;2023-08-08T09:17:57;100529.72;;;20.11;68.66
47670;BME280;33408;52.062;11.722;2023-08-08T09:20:25;100542.50;;;20.02;68.87
47670;BME280;33408;52.062;11.722;2023-08-08T09:22:53;100540.25;;;19.96;66.59
47670;BME280;33408;52.062;11.722;2023-08-08T09:25:22;100535.84;;;20.11;66.13
47670;BME280;33408;52.062;11.722;2023-08-08T09:27:49;100532.56;;;19.79;66.07
47670;BME280;33408;52.062;11.722;2023-08-08T09:30:17;100529.09;;;19.62;65.75
47670;BME280;33408;52.062;11.722;2023-08-08T09:32:44;100522.59;;;19.84;64.59
47670;BME280;33408;52.062;11.722;2023-08-08T09:35:11;100519.78;;;20.30;65.59
47670;BME280;33408;52.062;11.722;2023-08-08T09:37:38;100515.25;;;20.18;64.20
47670;BME280;33408;52.062;11.722;2023-08-08T09:40:06;100519.44;;;20.49;63.78
47670;BME280;33408;52.062;11.722;2023-08-08T09:42:34;100518.31;;;20.68;61.99
47670;BME280;33408;52.062;11.722;2023-08-08T09:45:01;100517.81;;;20.75;60.27
47670;BME280;33408;52.062;11.722;2023-08-08T09:47:28;100515.63;;;20.26;61.60
47670;BME280;33408;52.062;11.722;2023-08-08T09:49:57;100517.91;;;20.74;60.79
47670;BME280;33408;52.062;11.722;2023-08-08T09:52:27;100512.16;;;20.94;61.03
47670;BME280;33408;52.062;11.722;2023-08-08T09:54:54;100499.88;;;20.95;59.93
47670;BME280;33408;52.062;11.722;2023-08-08T09:57:21;100500.22;;;20.76;60.08
47670;BME280;33408;52.062;11.722;2023-08-08T09:59:51;100509.78;;;20.91;59.03
47670;BME280;33408;52.062;11.722;2023-08-08T10:02:18;100495.31;;;20.97;59.02
47670;BME280;33408;52.062;11.722;2023-08-08T10:04:45;100517.06;;;20.32;58.04
47670;BME280;33408;52.062;11.722;2023-08-08T10:07:12;100496.09;;;20.57;59.69
47670;BME280;33408;52.062;11.722;2023-08-08T10:09:39;100495.00;;;20.89;59.01
47670;BME280;33408;52.062;11.722;2023-08-08T10:12:06;100476.44;;;21.43;59.52
47670;BME280;33408;52.062;11.722;2023-08-08T10:14:36;100495.06;;;21.15;60.53
47670;BME280;33408;52.062;11.722;2023-08-08T10:17:04;100501.88;;;20.91;59.64
47670;BME280;33408;52.062;11.722;2023-08-08T10:19:31;100513.56;;;21.40;59.86
47670;BME280;33408;52.062;11.722;2023-08-08T10:21:59;100507.53;;;21.25;60.38
47670;BME280;33408;52.062;11.722;2023-08-08T10:24:32;100514.22;;;20.76;60.37
47670;BME280;33408;52.062;11.722;2023-08-08T10:27:00;100512.16;;;20.26;60.98
47670;BME280;33408;52.062;11.722;2023-08-08T10:29:29;100522.66;;;20.40;60.92
47670;BME280;33408;52.062;11.722;2023-08-08T10:31:58;100518.47;;;19.94;62.66
47670;BME280;33408;52.062;11.722;2023-08-08T10:34:36;100523.84;;;19.62;65.38
47670;BME280;33408;52.062;11.722;2023-08-08T10:37:05;100537.03;;;19.02;68.13
47670;BME280;33408;52.062;11.722;2023-08-08T10:39:32;100543.88;;;18.56;72.79
47670;BME280;33408;52.062;11.722;2023-08-08T10:42:01;100556.00;;;18.10;79.41
47670;BME280;33408;52.062;11.722;2023-08-08T10:44:29;100568.84;;;17.09;100.00
47670;BME280;33408;52.062;11.722;2023-08-08T10:46:56;100573.69;;;17.00;100.00
47670;BME280;33408;52.062;11.722;2023-08-08T10:49:22;100556.53;;;16.94;100.00
47670;BME280;33408;52.062;11.722;2023-08-08T10:51:51;100562.94;;;17.06;100.00
47670;BME280;33408;52.062;11.722;2023-08-08T10:54:22;100552.53;;;17.04;100.00
47670;BME280;33408;52.062;11.722;2023-08-08T10:56:53;100551.72;;;17.21;100.00
47670;BME280;33408;52.062;11.722;2023-08-08T10:59:22;100546.00;;;17.30;100.00
47670;BME280;33408;52.062;11.722;2023-08-08T11:01:50;100561.16;;;17.06;100.00
47670;BME280;33408;52.062;11.722;2023-08-08T11:04:19;100553.41;;;16.86;100.00
47670;BME280;33408;52.062;11.722;2023-08-08T11:06:48;100567.06;;;16.92;100.00
47670;BME280;33408;52.062;11.722;2023-08-08T11:09:17;100573.53;;;16.84;100.00
47670;BME280;33408;52.062;11.722;2023-08-08T11:11:44;100580.00;;;16.76;100.00
47670;BME280;33408;52.062;11.722;2023-08-08T11:14:12;100586.88;;;16.60;100.00
47670;BME280;33408;52.062;11.722;2023-08-08T11:16:39;100589.31;;;16.44;100.00
47670;BME280;33408;52.062;11.722;2023-08-08T11:19:06;100583.88;;;16.30;100.00
47670;BME280;33408;52.062;11.722;2023-08-08T11:21:34;100589.03;;;16.31;100.00
47670;BME280;33408;52.062;11.722;2023-08-08T11:24:05;100580.88;;;16.18;100.00
47670;BME280;33408;52.062;11.722;2023-08-08T11:26:34;100584.16;;;16.03;100.00
47670;BME280;33408;52.062;11.722;2023-08-08T11:29:03;100578.53;;;15.92;100.00
47670;BME280;33408;52.062;11.722;2023-08-08T11:31:31;100593.84;;;16.01;100.00
47670;BME280;33408;52.062;11.722;2023-08-08T11:33:58;100579.00;;;16.01;100.00
47670;BME280;33408;52.062;11.722;2023-08-08T11:36:25;100579.25;;;15.95;100.00
47670;BME280;33408;52.062;11.722;2023-08-08T11:38:52;100565.25;;;16.17;100.00
47670;BME280;33408;52.062;11.722;2023-08-08T11:41:22;100572.00;;;16.41;100.00
47670;BME280;33408;52.062;11.722;2023-08-08T11:43:52;100575.53;;;16.59;100.00
47670;BME280;33408;52.062;11.722;2023-08-08T11:46:23;100574.13;;;16.71;100.00
47670;BME280;33408;52.062;11.722;2023-08-08T11:48:50;100583.44;;;16.77;100.00
47670;BME280;33408;52.062;11.722;2023-08-08T11:51:16;100588.69;;;16.58;100.00
47670;BME280;33408;52.062;11.722;2023-08-08T11:53:50;100580.97;;;16.74;100.00
47670;BME280;33408;52.062;11.722;2023-08-08T11:56:18;100583.59;;;16.93;100.00
47670;BME280;33408;52.062;11.722;2023-08-08T11:58:46;100577.94;;;17.02;100.00
47670;BME280;33408;52.062;11.722;2023-08-08T12:01:14;100579.34;;;17.09;100.00
47670;BME280;33408;52.062;11.722;2023-08-08T12:03:40;100567.72;;;17.15;100.00
47670;BME280;33408;52.062;11.722;2023-08-08T12:06:13;100558.94;;;17.34;100.00
47670;BME280;33408;52.062;11.722;2023-08-08T12:08:41;100557.97;;;18.22;100.00
47670;BME280;33408;52.062;11.722;2023-08-08T12:11:09;100549.53;;;18.33;100.00
47670;BME280;33408;52.062;11.722;2023-08-08T12:13:37;100555.31;;;18.55;100.00
47670;BME280;33408;52.062;11.722;2023-08-08T12:16:05;100554.69;;;18.34;100.00
47670;BME280;33408;52.062;11.722;2023-08-08T12:18:34;100535.41;;;18.67;100.00
47670;BME280;33408;52.062;11.722;2023-08-08T12:21:00;100528.97;;;19.05;100.00
47670;BME280;33408;52.062;11.722;2023-08-08T12:23:27;100527.78;;;18.94;100.00
47670;BME280;33408;52.062;11.722;2023-08-08T12:25:54;100524.22;;;18.64;100.00
47670;BME280;33408;52.062;11.722;2023-08-08T12:28:21;100536.94;;;18.55;100.00
47670;BME280;33408;52.062;11.722;2023-08-08T12:30:47;100519.72;;;18.18;100.00
47670;BME280;33408;52.062;11.722;2023-08-08T12:33:14;100531.00;;;18.52;100.00